Time;durP1;ratioP1;P1;durP2;ratioP2;P2;SDS_P1;SDS_P2;PMS_P1;PMS_P2;Temp;Humidity;BMP_temperature;BMP_pressure;BME280_temperature;BME280_humidity;BME280_pressure;Samples;Min_cycle;Max_cycle;Signal;HPM_P1;HPM_P2
2023/07/09 00:02:23;;;;;;;6.85;6.18;;;21.80;99.90;;;-141.84;44.62;22005.34;4903628;28;20284;-67
2023/07/09 00:04:51;;;;;;;6.88;6.20;;;21.70;99.90;;;-141.84;44.77;21942.31;4898611;28;20643;-67
2023/07/09 00:07:28;;;;;;;7.22;6.53;;;21.70;99.90;;;-141.84;44.60;21921.97;4887982;29;20298;-66
2023/07/09 00:09:57;;;;;;;7.57;6.75;;;21.70;99.90;;;-141.84;44.91;21956.53;4888416;29;20773;-66
2023/07/09 00:12:26;;;;;;;7.03;6.35;;;21.70;99.90;;;-141.84;44.45;21974.84;4898766;28;20233;-65
2023/07/09 00:14:56;;;;;;;6.60;6.07;;;21.60;99.90;;;-141.84;44.91;21952.47;4879278;29;20203;-67
2023/07/09 00:17:30;;;;;;;9.05;7.22;;;21.70;99.90;;;-141.84;44.92;21956.53;4906697;29;20225;-66
2023/07/09 00:19:59;;;;;;;6.57;5.97;;;21.70;99.90;;;-141.84;45.09;21928.06;4890951;29;20242;-66
2023/07/09 00:22:28;;;;;;;7.03;6.32;;;21.60;99.90;;;-141.84;45.34;21901.63;4892145;29;20245;-67
2023/07/09 00:24:57;;;;;;;7.70;6.90;;;21.60;99.90;;;-141.84;44.97;21903.66;4899203;29;20272;-66
2023/07/09 00:27:30;;;;;;;7.32;6.63;;;21.60;99.90;;;-141.84;45.11;21917.91;4888008;29;20230;-67
2023/07/09 00:29:59;;;;;;;8.77;7.50;;;21.60;99.90;;;-141.84;44.93;21991.09;4888182;29;20660;-66
2023/07/09 00:32:28;;;;;;;7.60;6.90;;;21.60;99.90;;;-141.84;44.82;21960.59;4880864;29;20222;-66
2023/07/09 00:34:56;;;;;;;8.25;7.43;;;21.60;99.90;;;-141.84;44.84;21968.72;4888059;29;20626;-66
2023/07/09 00:37:27;;;;;;;7.30;6.68;;;21.60;99.90;;;-141.84;45.07;21911.78;4887530;29;20329;-66
2023/07/09 00:39:57;;;;;;;7.72;7.03;;;21.60;99.90;;;-141.84;45.52;21899.59;4887568;29;20317;-67
2023/07/09 00:42:25;;;;;;;7.13;6.45;;;21.50;99.90;;;-141.84;45.67;21846.72;4880441;29;20658;-65
2023/07/09 00:44:55;;;;;;;7.45;6.85;;;21.40;99.90;;;-141.84;46.21;21867.06;4888792;29;20246;-66
2023/07/09 00:47:32;;;;;;;7.32;6.63;;;21.30;99.90;;;-141.84;46.42;21816.22;4907316;29;20265;-66
2023/07/09 00:50:16;;;;;;;7.00;6.40;;;21.20;99.90;;;-141.84;46.19;21842.66;4890665;29;20666;-67
2023/07/09 00:52:55;;;;;;;7.03;6.18;;;21.20;99.90;;;-141.84;46.37;21814.19;4882218;29;20242;-67
2023/07/09 00:55:33;;;;;;;8.30;6.57;;;21.10;99.90;;;-141.84;46.67;21777.59;4887722;29;20328;-66
2023/07/09 00:58:06;;;;;;;6.82;6.20;;;21.10;99.90;;;-141.84;46.64;21814.19;4887621;29;20239;-67
2023/07/09 01:00:46;;;;;;;6.55;6.05;;;21.00;99.90;;;-141.84;46.61;21779.63;4879159;29;20249;-66
2023/07/09 01:03:25;;;;;;;6.78;6.28;;;21.00;99.90;;;-141.84;46.31;21814.19;4905631;29;20214;-66
2023/07/09 01:05:55;;;;;;;7.00;6.40;;;21.10;99.90;;;-141.84;46.64;21816.22;4888813;29;20207;-66
2023/07/09 01:08:23;;;;;;;9.77;6.65;;;21.10;99.90;;;-141.84;47.23;21804.03;4899358;29;20659;-66
2023/07/09 01:10:53;;;;;;;7.00;6.40;;;21.00;99.90;;;-141.84;47.04;21806.06;4911688;28;20265;-66
2023/07/09 01:13:21;;;;;;;7.15;6.45;;;21.00;99.90;;;-141.84;47.01;21771.50;4918355;28;20746;-67
2023/07/09 01:15:50;;;;;;;7.10;6.50;;;20.90;99.90;;;-141.84;47.02;21765.38;4909439;29;20305;-67
2023/07/09 01:18:18;;;;;;;7.40;6.70;;;20.90;99.90;;;-141.84;47.29;21775.56;4909060;29;20238;-66
2023/07/09 01:20:47;;;;;;;7.72;7.03;;;20.90;99.90;;;-141.84;47.11;21810.13;4907418;29;20295;-67
2023/07/09 01:23:17;;;;;;;7.63;6.93;;;20.90;99.90;;;-141.84;47.47;21749.13;4909752;28;20233;-67
2023/07/09 01:25:54;;;;;;;7.15;6.45;;;20.80;99.90;;;-141.84;47.79;21749.13;4910377;29;20238;-66
2023/07/09 01:28:22;;;;;;;6.80;6.13;;;20.80;99.90;;;-141.84;47.81;21757.25;4891225;29;20253;-67
2023/07/09 01:30:53;;;;;;;7.53;6.72;;;20.70;99.90;;;-141.84;48.11;21704.38;4896895;29;20739;-67
2023/07/09 01:33:23;;;;;;;7.30;6.60;;;20.70;99.90;;;-141.84;47.77;21730.81;4906433;28;20587;-67
2023/07/09 01:35:52;;;;;;;7.65;6.95;;;20.60;99.90;;;-141.84;48.00;21704.38;4891355;29;20218;-66
2023/07/09 01:38:22;;;;;;;7.35;6.75;;;20.60;99.90;;;-141.84;47.96;21708.47;4883060;29;20329;-65
2023/07/09 01:40:50;;;;;;;7.57;6.88;;;20.60;99.90;;;-141.84;48.33;21692.19;4891203;29;20325;-67
2023/07/09 01:43:19;;;;;;;8.07;7.30;;;20.60;99.90;;;-141.84;48.32;21698.28;4890795;29;20329;-66
2023/07/09 01:45:49;;;;;;;7.30;6.60;;;20.50;99.90;;;-141.84;48.71;21682.03;4891100;29;20238;-66
2023/07/09 01:48:20;;;;;;;7.47;6.85;;;20.50;99.90;;;-141.84;48.84;21657.63;4890653;29;20262;-67
2023/07/09 01:50:50;;;;;;;7.70;7.10;;;20.40;99.90;;;-141.84;48.93;21661.69;4891556;29;20217;-66
2023/07/09 01:53:23;;;;;;;7.90;7.13;;;20.40;99.90;;;-141.84;48.87;21657.63;4890735;29;20242;-67
2023/07/09 01:55:54;;;;;;;7.85;7.15;;;20.30;99.90;;;-141.84;49.41;21623.06;4890716;29;20230;-65
2023/07/09 01:58:24;;;;;;;7.68;7.05;;;20.30;99.90;;;-141.84;49.43;21625.09;4883234;29;20714;-68
2023/07/09 02:00:53;;;;;;;7.70;7.00;;;20.20;99.90;;;-141.84;49.37;21633.22;4890500;29;20741;-67
2023/07/09 02:03:22;;;;;;;9.18;7.22;;;20.20;99.90;;;-141.84;49.69;21606.78;4909355;29;20293;-65
2023/07/09 02:05:52;;;;;;;7.50;6.80;;;20.10;99.90;;;-141.84;49.20;21680.00;4891700;29;20215;-67
2023/07/09 02:08:21;;;;;;;7.90;6.78;;;20.20;99.90;;;-141.84;49.57;21608.81;4886582;29;20234;-65
2023/07/09 02:10:50;;;;;;;7.97;7.18;;;20.20;99.90;;;-141.84;49.60;21614.94;4895806;29;20764;-66
2023/07/09 02:13:19;;;;;;;7.47;6.85;;;20.10;99.90;;;-141.84;49.81;21635.25;4878399;29;20780;-67
2023/07/09 02:15:47;;;;;;;7.38;6.68;;;20.10;99.90;;;-141.84;49.88;21572.22;4890472;29;20291;-67
2023/07/09 02:18:15;;;;;;;7.78;7.07;;;20.00;99.90;;;-141.84;49.98;21578.31;4890110;29;20245;-67
2023/07/09 02:20:46;;;;;;;7.15;6.55;;;20.00;99.90;;;-141.84;50.09;21553.94;4884215;29;20261;-67
2023/07/09 02:23:14;;;;;;;7.40;6.80;;;20.00;99.90;;;-141.84;50.42;21574.25;4890175;29;20235;-67
2023/07/09 02:25:44;;;;;;;7.88;6.95;;;19.90;99.90;;;-141.84;50.15;21566.13;4889765;29;20778;-67
2023/07/09 02:28:12;;;;;;;7.13;6.43;;;19.90;99.90;;;-141.84;50.18;21568.16;4889588;29;20313;-66
2023/07/09 02:30:41;;;;;;;7.38;6.68;;;19.90;99.90;;;-141.84;50.21;21560.03;4881888;29;20599;-67
2023/07/09 02:33:09;;;;;;;7.50;6.90;;;19.90;99.90;;;-141.84;50.40;21541.72;4890307;29;20602;-66
2023/07/09 02:35:37;;;;;;;7.47;6.78;;;19.80;99.90;;;-141.84;50.36;21586.47;4878613;29;20212;-67
2023/07/09 02:38:06;;;;;;;8.23;7.47;;;19.80;99.90;;;-141.84;50.19;21555.97;4889878;29;20282;-67
2023/07/09 02:40:34;;;;;;;7.90;7.15;;;19.80;99.90;;;-141.84;50.64;21553.94;4882230;29;20800;-66
2023/07/09 02:43:04;;;;;;;8.90;7.32;;;19.80;99.90;;;-141.84;51.25;21578.31;4889816;29;20238;-66
2023/07/09 02:45:32;;;;;;;7.88;7.07;;;19.80;99.90;;;-141.84;51.76;21541.72;4889968;29;20322;-65
2023/07/09 02:48:00;;;;;;;7.72;7.03;;;19.70;99.90;;;-141.84;51.76;21523.44;4889579;29;20246;-67
2023/07/09 02:50:29;;;;;;;7.85;6.68;;;19.70;99.90;;;-141.84;52.07;21488.88;4882427;29;20211;-66
2023/07/09 02:52:57;;;;;;;10.48;7.20;;;19.60;99.90;;;-141.84;52.73;21456.34;4890234;29;20281;-67
2023/07/09 02:55:25;;;;;;;7.53;6.82;;;19.50;99.90;;;-141.84;52.83;21503.09;4889216;29;20359;-66
2023/07/09 02:57:53;;;;;;;8.13;7.28;;;19.50;99.90;;;-141.84;52.12;21488.88;4889384;29;20269;-66
2023/07/09 03:00:23;;;;;;;7.80;7.10;;;19.40;99.90;;;-141.84;52.42;21466.50;4881339;29;20321;-66
2023/07/09 03:02:51;;;;;;;7.35;6.50;;;19.50;99.90;;;-141.84;52.18;21476.66;4905431;29;20278;-67
2023/07/09 03:05:19;;;;;;;7.75;7.05;;;19.40;99.90;;;-141.84;52.56;21448.19;4895129;29;20242;-66
2023/07/09 03:07:47;;;;;;;7.70;6.97;;;19.40;99.90;;;-141.84;52.25;21537.66;4888998;29;20615;-68
2023/07/09 03:10:15;;;;;;;7.85;7.05;;;19.50;99.90;;;-141.84;51.97;21558.00;4900054;29;20291;-66
2023/07/09 03:12:44;;;;;;;7.85;7.15;;;19.50;99.90;;;-141.84;52.89;21476.66;4896098;29;20239;-66
2023/07/09 03:15:13;;;;;;;7.35;6.75;;;19.50;99.90;;;-141.84;53.19;21440.06;4889635;29;20265;-66
2023/07/09 03:17:42;;;;;;;8.20;7.40;;;19.50;99.90;;;-141.84;52.63;21503.09;4890289;29;20250;-66
2023/07/09 03:20:13;;;;;;;7.28;6.68;;;19.50;99.90;;;-141.84;53.18;21468.53;4889071;29;20667;-68
2023/07/09 03:22:41;;;;;;;8.82;7.90;;;19.40;99.90;;;-141.84;53.55;21464.47;4881886;29;20251;-66
2023/07/09 03:25:09;;;;;;;7.50;6.90;;;19.40;99.90;;;-141.84;53.45;21460.41;4889297;29;20326;-67
2023/07/09 03:27:37;;;;;;;8.18;7.43;;;19.40;99.90;;;-141.84;52.84;21492.94;4889225;29;20273;-67
2023/07/09 03:30:07;;;;;;;8.18;7.30;;;19.40;99.90;;;-141.84;52.84;21466.50;4888681;29;20298;-66
2023/07/09 03:32:36;;;;;;;8.48;7.65;;;19.40;99.90;;;-141.84;52.34;21517.31;4882156;29;20207;-65
2023/07/09 03:35:06;;;;;;;7.72;6.95;;;19.50;99.90;;;-141.84;52.49;21488.88;4888648;29;20611;-67
2023/07/09 03:37:34;;;;;;;8.27;7.57;;;19.50;99.90;;;-141.84;52.29;21486.81;4888078;29;20270;-66
2023/07/09 03:40:04;;;;;;;7.75;6.95;;;19.50;99.90;;;-141.84;52.59;21466.50;4888511;29;20274;-66
2023/07/09 03:42:32;;;;;;;7.90;7.10;;;19.50;99.90;;;-141.84;53.02;21436.00;4880297;29;20231;-66
2023/07/09 03:45:00;;;;;;;7.43;6.82;;;19.50;99.90;;;-141.84;52.76;21448.19;4888768;29;20347;-66
2023/07/09 03:47:28;;;;;;;7.97;7.18;;;19.50;99.90;;;-141.84;53.35;21458.38;4888881;29;20206;-68
2023/07/09 03:49:57;;;;;;;7.90;7.30;;;19.50;99.90;;;-141.84;53.35;21466.50;4888280;29;20235;-67
2023/07/09 03:52:26;;;;;;;8.80;7.75;;;19.50;99.90;;;-141.84;53.06;21452.25;4880763;29;20341;-66
2023/07/09 03:54:56;;;;;;;8.10;7.18;;;19.50;99.90;;;-141.84;53.08;21484.78;4888467;29;20781;-66
2023/07/09 03:57:24;;;;;;;8.15;7.32;;;19.50;99.90;;;-141.84;53.45;21488.88;4888436;29;20577;-67
2023/07/09 03:59:52;;;;;;;8.02;7.32;;;19.50;99.90;;;-141.84;52.66;21529.53;4888809;29;20734;-67
2023/07/09 04:02:20;;;;;;;9.00;8.20;;;19.60;99.90;;;-141.84;52.59;21541.72;4889808;29;20313;-66
2023/07/09 04:04:49;;;;;;;7.70;7.00;;;19.60;99.90;;;-141.84;52.59;21511.22;4887992;29;20227;-67
2023/07/09 04:07:17;;;;;;;8.68;7.88;;;19.60;99.90;;;-141.84;52.76;21505.13;4888271;29;20322;-66
2023/07/09 04:09:49;;;;;;;8.18;7.00;;;19.60;99.90;;;-141.84;52.94;21492.94;4888449;29;20307;-66
2023/07/09 04:12:17;;;;;;;7.50;6.80;;;19.70;99.90;;;-141.84;52.96;21488.88;4904945;29;20238;-67
2023/07/09 04:14:46;;;;;;;8.45;7.65;;;19.50;99.90;;;-141.84;53.08;21539.69;4888522;29;20266;-66
2023/07/09 04:17:14;;;;;;;7.75;6.95;;;19.70;99.90;;;-141.84;53.02;21525.47;4887948;29;20285;-67
2023/07/09 04:19:42;;;;;;;7.68;7.00;;;19.70;99.90;;;-141.84;52.72;21604.75;4887718;29;20273;-67
2023/07/09 04:22:12;;;;;;;7.68;7.03;;;19.80;99.90;;;-141.84;52.97;21570.19;4888529;29;20235;-67
2023/07/09 04:24:40;;;;;;;7.65;6.95;;;19.80;99.90;;;-141.84;52.96;21523.44;4880466;29;20234;-67
2023/07/09 04:27:10;;;;;;;8.45;7.65;;;19.90;99.90;;;-141.84;52.86;21582.38;4888045;29;20697;-67
2023/07/09 04:29:38;;;;;;;7.57;6.88;;;19.90;99.90;;;-141.84;52.81;21586.47;4888113;29;20251;-67
2023/07/09 04:32:08;;;;;;;7.85;7.15;;;20.00;99.90;;;-141.84;52.47;21614.94;4887640;29;20238;-67
2023/07/09 04:34:36;;;;;;;7.47;6.78;;;20.00;99.90;;;-141.84;52.23;21635.25;4879951;29;20715;-67
2023/07/09 04:37:05;;;;;;;9.38;7.20;;;20.10;99.90;;;-141.84;51.97;21629.16;4888196;29;20428;-66
2023/07/09 04:39:33;;;;;;;8.27;7.15;;;20.20;99.90;;;-141.84;52.13;21610.84;4888169;29;20250;-67
2023/07/09 04:42:02;;;;;;;8.40;7.65;;;20.20;99.90;;;-141.84;51.64;21655.59;4887281;29;20217;-66
2023/07/09 04:44:31;;;;;;;8.73;7.82;;;20.30;99.90;;;-141.84;51.65;21669.81;4880502;29;20305;-67
2023/07/09 04:46:59;;;;;;;7.72;7.13;;;20.40;99.90;;;-141.84;51.59;21696.25;4887617;29;20241;-67
2023/07/09 04:49:28;;;;;;;8.27;7.55;;;20.50;99.90;;;-141.84;51.01;21728.78;4887076;29;20294;-68
2023/07/09 04:51:58;;;;;;;7.68;6.97;;;20.60;99.90;;;-141.84;50.96;21726.75;4887384;29;20320;-67
2023/07/09 04:54:27;;;;;;;7.60;6.93;;;20.70;99.90;;;-141.84;50.67;21793.84;4880732;29;20719;-66
2023/07/09 04:56:55;;;;;;;7.78;7.13;;;20.80;99.90;;;-141.84;48.59;22058.22;4888203;29;20242;-67
2023/07/09 04:59:24;;;;;;;7.35;6.75;;;21.40;99.90;;;-141.84;44.54;22613.41;4906957;29;20297;-67
2023/07/09 05:01:54;;;;;;;7.45;6.75;;;22.70;99.90;;;-141.84;41.33;23154.44;4898663;29;20289;-68
2023/07/09 05:04:22;;;;;;;9.02;6.90;;;24.20;99.90;;;-141.84;37.62;23713.84;4893184;29;20770;-67
2023/07/09 05:06:50;;;;;;;6.80;6.20;;;25.90;99.90;;;-141.84;36.50;24171.63;4888104;29;20666;-67
2023/07/09 05:09:18;;;;;;;6.90;6.30;;;27.10;99.90;;;-141.84;34.46;24655.88;4887870;29;20313;-66
2023/07/09 05:11:47;;;;;;;8.27;6.25;;;28.30;99.90;;;-141.84;34.01;24932.66;4891251;29;20301;-67
2023/07/09 05:14:16;;;;;;;6.80;6.15;;;;;;;-141.84;32.87;25294.91;4877885;29;20265;-68
2023/07/09 05:16:45;;;;;;;6.85;6.32;;;29.00;99.90;;;-141.84;32.48;25514.72;4880170;29;20246;-67
2023/07/09 05:19:14;;;;;;;7.78;6.15;;;30.30;99.90;;;-141.84;31.84;25618.50;4887188;29;20298;-67
2023/07/09 05:21:42;;;;;;;6.95;6.22;;;30.30;99.90;;;-141.84;31.47;25885.16;4887242;29;20621;-67
2023/07/09 05:24:11;;;;;;;7.00;6.40;;;30.50;99.90;;;-141.84;30.91;26143.69;4887969;29;20305;-67
2023/07/09 05:26:39;;;;;;;7.07;6.38;;;30.80;99.90;;;-141.84;30.68;26316.72;4880803;29;20973;-68
2023/07/09 05:29:08;;;;;;;7.28;6.57;;;31.00;99.90;;;-141.84;30.83;26304.50;4887745;29;20303;-68
2023/07/09 05:31:36;;;;;;;6.70;6.10;;;31.30;99.90;;;-141.84;30.93;26078.53;4887121;29;20264;-67
2023/07/09 05:34:04;;;;;;;6.88;6.10;;;31.00;99.90;;;-141.84;30.80;26162.00;4887378;29;20729;-66
2023/07/09 05:36:34;;;;;;;5.97;5.47;;;31.00;99.90;;;-141.84;31.08;25956.41;4879634;29;20273;-66
2023/07/09 05:39:02;;;;;;;6.80;6.07;;;30.90;99.90;;;-141.84;31.55;25681.59;4887918;29;20302;-67
2023/07/09 05:41:30;;;;;;;6.68;6.07;;;30.60;99.90;;;-141.84;32.27;25211.44;4887931;29;20282;-66
2023/07/09 05:43:58;;;;;;;7.00;6.30;;;30.10;99.90;;;-141.84;33.33;24641.66;4887582;29;20329;-67
2023/07/09 05:46:26;;;;;;;7.13;6.40;;;29.30;99.90;;;-141.84;35.19;24108.53;4880072;29;20774;-67
2023/07/09 05:48:55;;;;;;;7.70;6.20;;;28.20;99.90;;;-141.84;36.51;23789.13;4887602;29;20606;-67
2023/07/09 05:51:24;;;;;;;7.07;6.47;;;27.50;99.90;;;-141.84;37.38;23549.06;4887236;29;20231;-66
2023/07/09 05:53:53;;;;;;;7.97;7.18;;;27.30;99.90;;;-141.84;38.51;23343.63;4887621;29;20707;-67
2023/07/09 05:56:22;;;;;;;7.30;6.50;;;26.90;99.90;;;-141.84;38.89;23243.94;4899717;29;20309;-68
2023/07/09 05:58:50;;;;;;;8.35;6.85;;;26.60;99.90;;;-141.84;40.24;23168.69;4906242;29;20265;-68
2023/07/09 06:01:20;;;;;;;7.50;6.80;;;26.30;99.90;;;-141.84;40.34;23095.44;4911699;29;20329;-67
2023/07/09 06:03:48;;;;;;;7.90;7.10;;;26.20;99.90;;;-141.84;40.36;23154.44;4927108;28;20257;-67
2023/07/09 06:06:17;;;;;;;7.57;6.95;;;26.20;99.90;;;-141.84;40.06;23046.63;4909317;29;20238;-66
2023/07/09 06:08:46;;;;;;;7.10;6.38;;;26.10;99.90;;;-141.84;40.55;23107.66;4881303;29;20750;-66
2023/07/09 06:11:17;;;;;;;7.13;6.43;;;26.00;99.90;;;-141.84;41.01;23091.38;4918059;28;20237;-67
2023/07/09 06:13:47;;;;;;;10.80;7.35;;;26.00;99.90;;;-141.84;40.56;23075.09;4917871;28;20264;-68
2023/07/09 06:16:16;;;;;;;8.15;7.25;;;26.10;99.90;;;-141.84;40.65;23095.44;4908656;28;20252;-67
2023/07/09 06:18:44;;;;;;;7.35;6.65;;;26.10;99.90;;;-141.84;40.43;23050.69;4903167;29;20608;-66
2023/07/09 06:21:12;;;;;;;8.32;6.82;;;26.00;99.90;;;-141.84;40.76;23054.75;4908867;28;20261;-66
2023/07/09 06:23:41;;;;;;;9.48;6.95;;;26.20;99.90;;;-141.84;40.80;23132.06;4909938;29;20232;-66
2023/07/09 06:26:09;;;;;;;8.48;7.00;;;26.30;99.90;;;-141.84;40.49;23132.06;4909220;29;20316;-67
2023/07/09 06:28:39;;;;;;;7.88;7.18;;;26.40;99.90;;;-141.84;40.04;23164.59;4901285;29;20614;-68
2023/07/09 06:31:07;;;;;;;7.68;6.97;;;26.40;99.90;;;-141.84;40.69;23209.34;4908868;29;20285;-67
2023/07/09 06:33:35;;;;;;;7.47;6.78;;;26.50;99.90;;;-141.84;40.22;23199.19;4908346;29;20308;-66
2023/07/09 06:36:04;;;;;;;7.15;6.45;;;26.60;99.90;;;-141.84;40.50;23245.97;4908580;29;20241;-67
2023/07/09 06:38:33;;;;;;;8.02;7.22;;;26.70;99.90;;;-141.84;40.40;23225.63;4901079;29;20633;-66
2023/07/09 06:41:01;;;;;;;7.20;6.60;;;26.70;99.90;;;-141.84;40.45;23262.25;4908965;29;20293;-67
2023/07/09 06:43:31;;;;;;;7.30;6.60;;;26.70;99.90;;;-141.84;39.91;23241.91;4908896;29;20234;-67
2023/07/09 06:46:03;;;;;;;7.55;6.88;;;26.70;99.90;;;-141.84;40.12;23221.56;4909004;29;20248;-67
2023/07/09 06:48:32;;;;;;;7.43;6.70;;;26.70;99.90;;;-141.84;40.20;23258.19;4900690;29;20285;-66
2023/07/09 06:51:01;;;;;;;8.18;7.38;;;26.80;99.90;;;-141.84;39.88;23258.19;4908763;29;20298;-67
2023/07/09 06:53:30;;;;;;;7.88;7.18;;;26.90;99.90;;;-141.84;40.17;23245.97;4909116;29;20753;-67
2023/07/09 06:55:59;;;;;;;7.68;6.95;;;26.90;99.90;;;-141.84;39.89;23252.06;4908504;29;20281;-68
2023/07/09 06:58:33;;;;;;;9.88;7.00;;;26.80;99.90;;;-141.84;39.63;23286.66;4900541;28;20605;-67
2023/07/09 07:01:05;;;;;;;7.75;6.78;;;26.80;99.90;;;-141.84;39.87;23272.41;4909214;28;20669;-67
2023/07/09 07:03:34;;;;;;;8.18;6.90;;;26.90;99.90;;;-141.84;39.95;23298.84;4923588;28;20230;-66
2023/07/09 07:06:06;;;;;;;7.85;7.15;;;26.90;99.90;;;-141.84;39.81;23311.06;4907839;28;20210;-65
2023/07/09 07:08:34;;;;;;;8.70;6.93;;;26.90;99.90;;;-141.84;39.72;23335.47;4900833;29;20219;-66
2023/07/09 07:11:06;;;;;;;7.15;6.55;;;26.90;99.90;;;-141.84;39.11;23357.84;4915387;28;20267;-66
2023/07/09 07:13:37;;;;;;;7.63;6.82;;;27.00;99.90;;;-141.84;39.42;23351.75;4917978;28;20254;-65
2023/07/09 07:16:09;;;;;;;7.70;6.95;;;27.10;99.90;;;-141.84;38.59;23374.13;4907354;29;20333;-66
2023/07/09 07:18:38;;;;;;;7.20;6.55;;;27.10;99.90;;;-141.84;38.70;23412.78;4900401;28;20268;-66
2023/07/09 07:21:07;;;;;;;7.03;6.50;;;27.10;99.90;;;-141.84;38.68;23443.28;4907407;28;20754;-66
2023/07/09 07:23:35;;;;;;;6.82;6.22;;;27.20;99.90;;;-141.84;38.59;23449.38;4908294;29;20265;-65
2023/07/09 07:26:04;;;;;;;6.60;6.10;;;27.20;99.90;;;-141.84;37.91;23465.66;4908087;29;20238;-64
2023/07/09 07:28:36;;;;;;;7.50;6.80;;;27.30;99.90;;;-141.84;37.70;23433.13;4900072;28;20230;-66
2023/07/09 07:31:08;;;;;;;7.20;6.50;;;27.30;99.90;;;-141.84;38.22;23483.97;4908146;29;20569;-66
2023/07/09 07:33:40;;;;;;;6.78;6.15;;;27.40;99.90;;;-141.84;38.23;23439.22;4907800;29;20264;-65
2023/07/09 07:36:10;;;;;;;8.95;6.45;;;27.40;99.90;;;-141.84;38.39;23455.50;4888213;29;20298;-66
2023/07/09 07:38:41;;;;;;;7.35;6.72;;;27.40;99.90;;;-141.84;38.32;23481.94;4882599;29;20223;-65
2023/07/09 07:41:10;;;;;;;7.30;6.53;;;27.40;99.90;;;-141.84;38.44;23479.91;4898286;29;20325;-67
2023/07/09 07:43:38;;;;;;;7.32;6.63;;;27.40;99.90;;;-141.84;38.12;23496.19;4907150;29;20253;-65
2023/07/09 07:46:08;;;;;;;7.10;6.50;;;27.40;99.90;;;-141.84;37.61;23510.41;4907878;29;20241;-66
2023/07/09 07:48:37;;;;;;;6.50;5.95;;;27.40;99.90;;;-141.84;37.96;23471.78;4899741;29;20230;-66
2023/07/09 07:51:05;;;;;;;7.00;6.40;;;27.40;99.90;;;-141.84;38.10;23536.88;4907635;29;20245;-66
2023/07/09 07:53:33;;;;;;;7.20;6.60;;;27.50;99.90;;;-141.84;37.56;23555.19;4908253;29;20265;-66
2023/07/09 07:56:02;;;;;;;8.25;7.45;;;27.50;99.90;;;-141.84;37.85;23508.38;4907530;29;20329;-65
2023/07/09 07:58:32;;;;;;;7.00;6.40;;;27.50;99.90;;;-141.84;37.64;23518.56;4900666;29;20289;-65
2023/07/09 08:01:01;;;;;;;6.93;6.22;;;27.50;99.90;;;-141.84;37.67;23510.41;4907557;29;20257;-67
2023/07/09 08:03:31;;;;;;;7.45;6.75;;;27.40;99.90;;;-141.84;37.45;23504.31;4925820;28;20245;-65
2023/07/09 08:05:59;;;;;;;8.40;6.47;;;27.40;99.90;;;-141.84;37.45;23567.38;4907563;29;20210;-65
2023/07/09 08:08:30;;;;;;;6.93;6.22;;;27.50;99.90;;;-141.84;37.62;23532.78;4899565;29;20206;-66
2023/07/09 08:11:04;;;;;;;7.38;6.68;;;27.50;99.90;;;-141.84;37.39;23538.91;4913334;28;20232;-66
2023/07/09 08:13:36;;;;;;;7.00;6.30;;;27.50;99.90;;;-141.84;37.37;23565.34;4917371;28;20229;-66
2023/07/09 08:16:05;;;;;;;7.05;6.35;;;27.50;99.90;;;-141.84;37.60;23577.56;4906328;29;20249;-66
2023/07/09 08:18:35;;;;;;;6.38;5.78;;;27.60;99.90;;;-141.84;37.28;23579.59;4899446;28;20227;-65
2023/07/09 08:21:04;;;;;;;6.53;5.93;;;27.60;99.90;;;-141.84;36.78;23626.38;4906142;29;20206;-65
2023/07/09 08:23:32;;;;;;;7.40;6.72;;;27.70;99.90;;;-141.84;36.68;23587.72;4907065;29;20324;-66
2023/07/09 08:26:03;;;;;;;7.93;6.00;;;27.70;99.90;;;-141.84;36.64;23630.44;4906818;29;20670;-67
2023/07/09 08:28:33;;;;;;;6.97;6.28;;;27.80;99.90;;;-141.84;36.52;23758.59;4899332;28;20276;-66
2023/07/09 08:31:01;;;;;;;8.82;6.60;;;27.90;99.90;;;-141.84;36.21;23709.78;4906272;29;20562;-66
2023/07/09 08:33:31;;;;;;;8.23;6.45;;;28.00;99.90;;;-141.84;35.63;23762.69;4907021;29;20225;-67
2023/07/09 08:36:00;;;;;;;6.40;5.80;;;28.10;99.90;;;-141.84;35.50;23762.69;4888852;29;20211;-65
2023/07/09 08:38:28;;;;;;;5.95;5.45;;;28.10;99.90;;;-141.84;35.50;23789.13;4880242;29;20219;-64
2023/07/09 08:41:00;;;;;;;6.13;5.63;;;28.20;99.90;;;-141.84;35.53;23846.09;4887085;29;20322;-66
2023/07/09 08:43:50;;;;;;;6.00;5.60;;;28.30;99.90;;;-141.84;35.41;23874.56;4887834;29;20244;-66
2023/07/09 08:46:30;;;;;;;6.47;5.88;;;28.40;99.90;;;-141.84;34.98;23874.56;4898063;29;20660;-67
2023/07/09 08:49:03;;;;;;;5.90;5.40;;;28.50;99.90;;;-141.84;34.85;23892.88;4898831;29;20238;-66
2023/07/09 08:51:39;;;;;;;5.72;5.15;;;28.50;99.90;;;-141.84;34.07;23921.38;4888138;29;20314;-66
2023/07/09 08:54:19;;;;;;;5.55;5.15;;;28.50;99.90;;;-141.84;34.03;23923.41;4888295;29;20297;-65
2023/07/09 08:56:47;;;;;;;5.60;5.10;;;28.60;99.90;;;-141.84;33.45;24010.88;4887271;29;20294;-64
2023/07/09 08:59:20;;;;;;;5.70;5.20;;;28.70;99.90;;;-141.84;32.69;24055.66;4887824;29;20245;-65
2023/07/09 09:01:55;;;;;;;5.80;5.40;;;28.70;99.90;;;-141.84;32.50;24033.25;4894315;29;20317;-66
2023/07/09 09:04:29;;;;;;;5.78;5.38;;;28.80;99.90;;;-141.84;33.02;24073.97;4893360;29;20698;-67
2023/07/09 09:07:17;;;;;;;5.55;5.07;;;28.90;99.90;;;-141.84;32.77;24061.75;4887556;29;20262;-65
2023/07/09 09:09:55;;;;;;;5.88;5.38;;;29.00;99.90;;;-141.84;32.00;24159.41;4888269;29;20234;-65
2023/07/09 09:12:30;;;;;;;5.35;4.95;;;29.00;99.90;;;-141.84;32.52;24155.34;4898118;29;20253;-66
2023/07/09 09:15:01;;;;;;;6.20;5.60;;;29.10;99.90;;;-141.84;32.26;24120.75;4879154;29;20252;-65
2023/07/09 09:17:30;;;;;;;6.55;5.95;;;29.10;99.90;;;-141.84;32.35;24224.53;4888232;29;20286;-65
2023/07/09 09:20:03;;;;;;;5.95;5.45;;;29.20;99.90;;;-141.84;32.22;24269.28;4888198;29;20230;-65
2023/07/09 09:22:45;;;;;;;6.22;5.57;;;29.30;99.90;;;-141.84;32.03;24267.25;4880219;29;20241;-68
2023/07/09 09:25:26;;;;;;;7.47;5.95;;;29.40;99.90;;;-141.84;32.53;24253.00;4869571;29;20227;-66
2023/07/09 09:27:55;;;;;;;5.35;4.90;;;29.40;99.90;;;-141.84;32.39;24314.03;4885187;29;20313;-65
2023/07/09 09:30:25;;;;;;;6.00;5.28;;;29.50;99.90;;;-141.84;31.93;24314.03;4880265;29;20315;-66
2023/07/09 09:32:57;;;;;;;5.55;5.05;;;29.50;99.90;;;-141.84;32.30;24381.19;4888012;29;20699;-67
2023/07/09 09:35:33;;;;;;;5.88;5.28;;;29.60;99.90;;;-141.84;32.48;24373.06;4894259;29;20313;-66
2023/07/09 09:38:10;;;;;;;6.15;5.55;;;29.70;99.90;;;-141.84;32.02;24395.44;4907380;28;20265;-66
2023/07/09 09:40:39;;;;;;;5.10;4.68;;;29.70;99.90;;;-141.84;32.04;24421.88;4902980;29;20932;-66
2023/07/09 09:43:16;;;;;;;6.28;5.78;;;29.80;99.90;;;-141.84;31.42;24452.41;4891661;29;20289;-66
2023/07/09 09:45:47;;;;;;;5.70;5.20;;;29.80;99.90;;;-141.84;31.75;24470.72;4890568;29;20238;-66
2023/07/09 09:48:20;;;;;;;5.70;5.10;;;29.90;99.90;;;-141.84;31.59;24535.84;4890733;29;20646;-66
2023/07/09 09:50:49;;;;;;;5.97;5.38;;;30.00;99.90;;;-141.84;31.10;24633.50;4890950;29;20613;-66
2023/07/09 09:53:24;;;;;;;6.28;5.13;;;30.20;99.90;;;-141.84;31.01;24615.19;4902483;29;20316;-65
2023/07/09 09:55:54;;;;;;;5.82;5.32;;;30.10;99.90;;;-141.84;30.41;24678.28;4909586;29;20280;-65
2023/07/09 09:58:29;;;;;;;5.43;5.03;;;30.20;99.90;;;-141.84;30.66;24668.09;4902429;28;20634;-66
2023/07/09 10:01:00;;;;;;;6.07;5.57;;;30.30;99.90;;;-141.84;30.15;24698.63;4909840;29;20717;-66
2023/07/09 10:03:37;;;;;;;6.78;4.72;;;30.30;99.90;;;-141.84;30.27;24727.13;4928403;28;20713;-67
2023/07/09 10:06:15;;;;;;;5.10;4.70;;;30.40;99.90;;;-141.84;29.72;24704.72;4928080;28;20237;-65
2023/07/09 10:08:57;;;;;;;5.60;5.00;;;30.40;99.90;;;-141.84;29.19;24759.66;4921780;28;20245;-67
2023/07/09 10:11:45;;;;;;;5.40;5.00;;;30.40;99.90;;;-141.84;29.39;24786.13;4918641;29;20234;-67
2023/07/09 10:14:33;;;;;;;5.20;4.80;;;30.50;99.90;;;-141.84;28.88;24837.00;4910374;29;20623;-66
2023/07/09 10:17:16;;;;;;;6.65;4.80;;;30.60;99.90;;;-141.84;29.16;24845.13;4908814;28;20783;-66
2023/07/09 10:19:56;;;;;;;5.40;4.88;;;30.70;99.90;;;-141.84;28.87;24877.69;4909252;29;20242;-65